Time;durP1;ratioP1;P1;durP2;ratioP2;P2;SDS_P1;SDS_P2;PMS_P1;PMS_P2;Temp;Humidity;BMP_temperature;BMP_pressure;BME280_temperature;BME280_humidity;BME280_pressure;Samples;Min_cycle;Max_cycle;Signal;HPM_P1;HPM_P2
2021/04/11 00:01:33;;;;;;;;;;;;;;;11.94;58.77;101019.09;4982949;28;96798;-79
2021/04/11 00:03:59;;;;;;;;;;;;;;;11.81;58.86;101021.34;4994055;28;97739;-78
2021/04/11 00:06:24;;;;;;;;;;;;;;;11.95;58.78;101010.22;4994668;28;101283;-78
2021/04/11 00:08:51;;;;;;;;;;;;;;;11.61;59.32;101007.91;4995181;28;99401;-80
2021/04/11 00:11:18;;;;;;;;;;;;;;;12.02;58.88;101011.72;4995540;28;97013;-79
2021/04/11 00:13:44;;;;;;;;;;;;;;;11.86;59.25;101011.44;4996199;28;97737;-79
2021/04/11 00:16:10;;;;;;;;;;;;;;;12.12;58.59;101010.47;4990139;28;98440;-79
2021/04/11 00:18:36;;;;;;;;;;;;;;;11.95;58.88;100997.84;4993419;28;96870;-78
2021/04/11 00:21:03;;;;;;;;;;;;;;;12.37;57.91;100997.13;5000260;28;97015;-79
2021/04/11 00:23:30;;;;;;;;;;;;;;;12.25;58.32;100990.53;4990371;28;98929;-78
2021/04/11 00:25:57;;;;;;;;;;;;;;;12.22;58.03;100989.78;4998369;28;98938;-78
2021/04/11 00:28:22;;;;;;;;;;;;;;;11.96;59.01;100991.63;4995801;28;96989;-79
2021/04/11 00:30:49;;;;;;;;;;;;;;;12.06;59.13;100984.22;4996920;28;97760;-78
2021/04/11 00:33:23;;;;;;;;;;;;;;;11.96;59.27;100990.75;4992997;28;99348;-79
2021/04/11 00:35:52;;;;;;;;;;;;;;;11.91;59.79;100984.78;4996061;28;98111;-79
2021/04/11 00:38:18;;;;;;;;;;;;;;;11.92;59.78;100974.13;4988131;28;96838;-79
2021/04/11 00:40:44;;;;;;;;;;;;;;;12.07;59.32;100974.47;4995915;28;96811;-79
2021/04/11 00:43:12;;;;;;;;;;;;;;;12.03;59.35;100964.91;4994395;28;97884;-80
2021/04/11 00:45:41;;;;;;;;;;;;;;;12.10;59.08;100967.28;4987774;28;99019;-79
2021/04/11 00:48:08;;;;;;;;;;;;;;;12.10;59.36;100961.97;4992617;28;96906;-80
2021/04/11 00:50:34;;;;;;;;;;;;;;;12.11;59.05;100961.06;4994800;28;96955;-77
2021/04/11 00:53:00;;;;;;;;;;;;;;;12.05;59.50;100950.69;4994706;28;98939;-79
2021/04/11 00:55:26;;;;;;;;;;;;;;;11.98;59.68;100951.84;4995012;28;99615;-79
2021/04/11 00:57:52;;;;;;;;;;;;;;;12.33;58.95;100951.38;4995229;28;96802;-79
2021/04/11 01:00:22;;;;;;;;;;;;;;;11.91;59.87;100951.22;4995125;28;98448;-78
2021/04/11 01:02:48;;;;;;;;;;;;;;;11.97;60.12;100944.81;4994349;28;98987;-79
2021/04/11 01:05:19;;;;;;;;;;;;;;;12.23;59.27;100942.03;4996073;28;99231;-80
2021/04/11 01:07:46;;;;;;;;;;;;;;;12.28;59.26;100936.53;4996940;28;96803;-79
2021/04/11 01:10:14;;;;;;;;;;;;;;;12.37;58.97;100939.72;4993410;28;96815;-79
2021/04/11 01:12:40;;;;;;;;;;;;;;;11.89;60.08;100936.28;4995300;28;99269;-80
2021/04/11 01:15:10;;;;;;;;;;;;;;;11.98;60.19;100925.38;4995046;28;98923;-80
2021/04/11 01:17:37;;;;;;;;;;;;;;;12.03;59.83;100934.00;4995850;28;96852;-80
2021/04/11 01:20:07;;;;;;;;;;;;;;;11.77;60.41;100928.81;4995507;28;96760;-80
2021/04/11 01:22:37;;;;;;;;;;;;;;;12.05;60.25;100928.63;4995399;28;100916;-79
2021/04/11 01:25:06;;;;;;;;;;;;;;;11.47;61.96;100928.16;4997103;28;98802;-79
2021/04/11 01:27:33;;;;;;;;;;;;;;;11.47;62.03;100926.38;5002388;28;96670;-80
2021/04/11 01:30:00;;;;;;;;;;;;;;;11.63;61.72;100928.44;4998419;28;97219;-79
2021/04/11 01:32:27;;;;;;;;;;;;;;;11.83;61.22;100923.28;4995242;28;97798;-79
2021/04/11 01:34:54;;;;;;;;;;;;;;;11.76;61.42;100916.50;4996381;28;99364;-79
2021/04/11 01:37:21;;;;;;;;;;;;;;;11.88;60.71;100916.06;4987056;28;97141;-80
2021/04/11 01:39:47;;;;;;;;;;;;;;;12.12;60.30;100907.16;4997364;28;96780;-80
2021/04/11 01:42:15;;;;;;;;;;;;;;;11.95;60.61;100909.56;4998324;28;99418;-79
2021/04/11 01:44:42;;;;;;;;;;;;;;;12.09;60.35;100896.66;4998534;28;98868;-79
2021/04/11 01:47:08;;;;;;;;;;;;;;;12.02;60.43;100899.63;4997667;28;96782;-81
2021/04/11 01:49:34;;;;;;;;;;;;;;;11.89;60.75;100893.94;4997552;28;96859;-81
2021/04/11 01:52:03;;;;;;;;;;;;;;;11.83;60.82;100896.81;4997726;28;99250;-80
2021/04/11 01:54:31;;;;;;;;;;;;;;;11.98;60.66;100883.00;4987831;28;98816;-80
2021/04/11 01:57:04;;;;;;;;;;;;;;;12.21;60.00;100890.00;4999302;28;96832;-82
2021/04/11 01:59:31;;;;;;;;;;;;;;;11.86;60.94;100883.47;4997092;28;98632;-79
2021/04/11 02:01:59;;;;;;;;;;;;;;;12.24;60.03;100864.28;4994958;28;98426;-80
2021/04/11 02:04:25;;;;;;;;;;;;;;;12.06;60.56;100870.31;4994944;28;101426;-80
2021/04/11 02:06:53;;;;;;;;;;;;;;;11.69;61.63;100860.25;4995505;28;96779;-79
2021/04/11 02:09:20;;;;;;;;;;;;;;;11.74;61.75;100863.63;4994451;28;98906;-79
2021/04/11 02:11:47;;;;;;;;;;;;;;;12.14;60.74;100868.19;4994803;28;98880;-80
2021/04/11 02:14:13;;;;;;;;;;;;;;;11.89;61.21;100864.81;4994470;28;98764;-80
2021/04/11 02:16:40;;;;;;;;;;;;;;;12.19;60.52;100862.75;4993501;28;97092;-80
2021/04/11 02:19:07;;;;;;;;;;;;;;;12.18;60.44;100856.59;4993123;28;99395;-81
2021/04/11 02:21:33;;;;;;;;;;;;;;;11.85;61.37;100850.84;4991896;28;98645;-81
2021/04/11 02:23:59;;;;;;;;;;;;;;;11.75;61.45;100845.97;4993673;28;98825;-80
2021/04/11 02:26:25;;;;;;;;;;;;;;;11.91;61.41;100849.72;4987622;28;96893;-81
2021/04/11 02:28:51;;;;;;;;;;;;;;;12.20;60.36;100845.94;4991666;28;97196;-81
2021/04/11 02:31:19;;;;;;;;;;;;;;;11.75;61.31;100845.97;4995445;28;99045;-80
2021/04/11 02:33:53;;;;;;;;;;;;;;;11.78;61.88;100835.25;4991820;28;101788;-80
2021/04/11 02:36:21;;;;;;;;;;;;;;;12.01;61.12;100829.91;4995315;28;96892;-81
2021/04/11 02:38:47;;;;;;;;;;;;;;;12.04;61.01;100832.44;4991478;28;96929;-80
2021/04/11 02:41:14;;;;;;;;;;;;;;;12.16;60.43;100823.13;4991905;28;99299;-80
2021/04/11 02:43:40;;;;;;;;;;;;;;;11.94;61.28;100825.78;4993489;28;98285;-80
2021/04/11 02:46:07;;;;;;;;;;;;;;;11.99;61.04;100823.81;4993616;28;98075;-79
2021/04/11 02:48:33;;;;;;;;;;;;;;;11.88;61.54;100823.38;4994129;28;96850;-80
2021/04/11 02:51:00;;;;;;;;;;;;;;;11.82;61.45;100819.16;4993912;28;101756;-79
2021/04/11 02:53:28;;;;;;;;;;;;;;;11.94;61.06;100816.06;4992532;28;101891;-78
2021/04/11 02:55:54;;;;;;;;;;;;;;;11.94;61.25;100812.56;4992734;28;97013;-78
2021/04/11 02:58:21;;;;;;;;;;;;;;;11.92;61.21;100807.31;4996948;28;96856;-78
2021/04/11 03:00:48;;;;;;;;;;;;;;;11.84;61.55;100803.22;4997696;28;99585;-79
2021/04/11 03:03:14;;;;;;;;;;;;;;;11.66;62.01;100796.00;4994714;28;98180;-79
2021/04/11 03:05:40;;;;;;;;;;;;;;;11.83;61.97;100794.41;4992174;28;98274;-79
2021/04/11 03:08:08;;;;;;;;;;;;;;;11.91;61.53;100787.03;4991350;28;97025;-80
2021/04/11 03:10:37;;;;;;;;;;;;;;;11.61;62.33;100790.88;4990962;28;98643;-79
2021/04/11 03:13:04;;;;;;;;;;;;;;;11.91;61.35;100787.03;4991672;28;97567;-79
2021/04/11 03:15:31;;;;;;;;;;;;;;;11.66;61.60;100785.41;4991609;28;96880;-79
2021/04/11 03:17:57;;;;;;;;;;;;;;;11.68;61.80;100778.28;4991496;28;97229;-80
2021/04/11 03:20:25;;;;;;;;;;;;;;;11.76;61.80;100770.91;4994160;28;99174;-78
2021/04/11 03:22:52;;;;;;;;;;;;;;;11.94;61.42;100775.47;4994675;28;98655;-80
2021/04/11 03:25:19;;;;;;;;;;;;;;;11.92;61.19;100766.72;4996944;28;97124;-79
2021/04/11 03:27:47;;;;;;;;;;;;;;;12.02;61.20;100769.84;5011994;28;98025;-79
2021/04/11 03:30:17;;;;;;;;;;;;;;;11.80;61.60;100767.22;5011549;28;96965;-80
2021/04/11 03:32:46;;;;;;;;;;;;;;;11.84;61.55;100760.88;5013586;28;100233;-79
2021/04/11 03:35:13;;;;;;;;;;;;;;;11.87;61.76;100755.47;4986558;28;96873;-79
2021/04/11 03:37:40;;;;;;;;;;;;;;;11.88;61.15;100754.53;4994300;28;96944;-80
2021/04/11 03:40:09;;;;;;;;;;;;;;;11.76;61.50;100755.00;4996503;28;98776;-80
2021/04/11 03:42:39;;;;;;;;;;;;;;;11.74;62.13;100751.59;4990419;28;99211;-81
2021/04/11 03:45:05;;;;;;;;;;;;;;;11.38;62.75;100762.66;4997467;28;96735;-81
2021/04/11 03:47:35;;;;;;;;;;;;;;;11.73;61.95;100763.06;4995551;28;97030;-81
2021/04/11 03:50:04;;;;;;;;;;;;;;;11.42;62.75;100766.88;4992882;28;99266;-81
2021/04/11 03:52:32;;;;;;;;;;;;;;;11.54;62.36;100763.78;4993512;28;99827;-80
2021/04/11 03:55:00;;;;;;;;;;;;;;;11.24;63.40;100772.03;4993394;28;96858;-81
2021/04/11 03:57:28;;;;;;;;;;;;;;;11.49;62.92;100765.72;4994157;28;96903;-80
2021/04/11 04:00:04;;;;;;;;;;;;;;;11.01;64.65;100762.31;4991956;28;98849;-81
2021/04/11 04:02:30;;;;;;;;;;;;;;;11.54;63.56;100760.28;4993009;28;97815;-80
2021/04/11 04:04:57;;;;;;;;;;;;;;;11.75;62.23;100750.66;4991701;28;97383;-80
2021/04/11 04:07:24;;;;;;;;;;;;;;;11.95;61.39;100746.25;4995152;28;96871;-80
2021/04/11 04:09:53;;;;;;;;;;;;;;;11.78;61.77;100743.44;4988024;28;98957;-81
2021/04/11 04:12:27;;;;;;;;;;;;;;;11.80;61.52;100743.41;4993490;28;99292;-81
2021/04/11 04:15:03;;;;;;;;;;;;;;;11.98;60.94;100743.50;4991347;28;97305;-81
2021/04/11 04:17:33;;;;;;;;;;;;;;;11.95;61.02;100742.75;4991922;28;97076;-80
2021/04/11 04:20:07;;;;;;;;;;;;;;;11.75;61.80;100735.63;4986799;28;98869;-80
2021/04/11 04:22:42;;;;;;;;;;;;;;;12.03;60.90;100731.84;4991920;28;98844;-80
2021/04/11 04:25:23;;;;;;;;;;;;;;;11.95;61.17;100732.16;4992160;28;96869;-80
2021/04/11 04:27:54;;;;;;;;;;;;;;;11.93;60.99;100732.25;4994655;28;97003;-81
2021/04/11 04:30:24;;;;;;;;;;;;;;;11.78;61.64;100732.00;4996805;28;97633;-81
2021/04/11 04:33:14;;;;;;;;;;;;;;;11.70;61.73;100734.06;4995400;28;98855;-80
2021/04/11 04:35:42;;;;;;;;;;;;;;;11.85;61.44;100730.81;4979028;28;96752;-81
2021/04/11 04:38:15;;;;;;;;;;;;;;;11.84;61.41;100735.25;4998936;28;96922;-81
2021/04/11 04:40:44;;;;;;;;;;;;;;;12.03;61.05;100730.06;4994757;28;102240;-80
2021/04/11 04:43:15;;;;;;;;;;;;;;;11.84;61.69;100731.75;4995460;28;98957;-81
2021/04/11 04:45:44;;;;;;;;;;;;;;;11.83;61.53;100725.59;4994035;28;99163;-80
2021/04/11 04:48:13;;;;;;;;;;;;;;;11.80;61.27;100743.41;4989023;28;97763;-80
2021/04/11 04:50:40;;;;;;;;;;;;;;;11.73;61.84;100731.28;4993247;28;98959;-80
2021/04/11 04:53:10;;;;;;;;;;;;;;;12.00;60.81;100726.69;4990741;28;98893;-80
2021/04/11 04:55:37;;;;;;;;;;;;;;;12.04;60.69;100739.72;4984805;28;97491;-79
2021/04/11 04:58:06;;;;;;;;;;;;;;;12.24;60.17;100736.25;4992053;28;97967;-79
2021/04/11 05:00:35;;;;;;;;;;;;;;;12.20;60.36;100739.97;4992847;28;98961;-80
2021/04/11 05:03:04;;;;;;;;;;;;;;;12.43;59.50;100738.97;4991309;28;98828;-79
2021/04/11 05:05:31;;;;;;;;;;;;;;;12.23;59.96;100738.03;4994327;28;96805;-80
2021/04/11 05:07:59;;;;;;;;;;;;;;;12.33;60.04;100730.56;4991713;28;97247;-80
2021/04/11 05:10:27;;;;;;;;;;;;;;;12.40;59.49;100737.34;4991141;28;99810;-80
2021/04/11 05:12:57;;;;;;;;;;;;;;;12.28;59.98;100738.69;4992616;28;98794;-80
2021/04/11 05:15:25;;;;;;;;;;;;;;;12.17;60.12;100743.59;4979968;28;96879;-80
2021/04/11 05:17:53;;;;;;;;;;;;;;;12.14;60.77;100740.22;4993049;28;97067;-80
2021/04/11 05:20:24;;;;;;;;;;;;;;;12.26;60.32;100735.28;4991172;28;100327;-80
2021/04/11 05:22:52;;;;;;;;;;;;;;;12.66;58.85;100728.25;4993123;28;99011;-81
2021/04/11 05:25:20;;;;;;;;;;;;;;;12.73;58.48;100721.75;4994933;28;96767;-79
2021/04/11 05:27:53;;;;;;;;;;;;;;;12.72;58.60;100709.41;4995167;28;97121;-79
2021/04/11 05:30:23;;;;;;;;;;;;;;;13.02;58.23;100705.34;4992930;28;99271;-79
2021/04/11 05:32:50;;;;;;;;;;;;;;;12.90;58.03;100702.41;4998420;28;98188;-80
2021/04/11 05:35:16;;;;;;;;;;;;;;;12.31;60.02;100727.97;4995262;28;97024;-79
2021/04/11 05:37:50;;;;;;;;;;;;;;;12.17;60.71;100724.19;4998826;28;96997;-79
2021/04/11 05:40:17;;;;;;;;;;;;;;;12.61;59.41;100720.47;4999875;28;98969;-80
2021/04/11 05:42:47;;;;;;;;;;;;;;;12.81;58.76;100716.94;4993463;28;98078;-81
2021/04/11 05:45:15;;;;;;;;;;;;;;;13.22;57.15;100712.41;4992672;28;96816;-80
2021/04/11 05:47:47;;;;;;;;;;;;;;;13.11;57.48;100709.38;4993132;28;97153;-80
2021/04/11 05:50:17;;;;;;;;;;;;;;;13.27;56.86;100709.53;4990638;28;101361;-80
2021/04/11 05:52:45;;;;;;;;;;;;;;;13.31;57.14;100708.47;4992290;28;99100;-80
2021/04/11 05:55:13;;;;;;;;;;;;;;;13.27;57.20;100709.53;4992467;28;96836;-80
2021/04/11 05:57:42;;;;;;;;;;;;;;;13.05;57.36;100696.41;4992374;28;96948;-80
2021/04/11 06:00:09;;;;;;;;;;;;;;;13.02;57.70;100700.03;4991605;28;99314;-79
2021/04/11 06:02:38;;;;;;;;;;;;;;;12.91;57.84;100712.09;4992124;28;98761;-80
2021/04/11 06:05:08;;;;;;;;;;;;;;;12.87;57.88;100697.22;4994522;28;97108;-80
2021/04/11 06:07:36;;;;;;;;;;;;;;;12.80;57.86;100699.28;4990658;28;96977;-80
2021/04/11 06:10:05;;;;;;;;;;;;;;;12.98;57.39;100695.81;4986209;28;98182;-80
2021/04/11 06:12:35;;;;;;;;;;;;;;;12.94;57.86;100683.63;4991015;28;98942;-80
2021/04/11 06:15:03;;;;;;;;;;;;;;;12.94;57.56;100674.78;4994228;28;96927;-80
2021/04/11 06:17:29;;;;;;;;;;;;;;;13.02;57.73;100684.13;4996794;28;97711;-80
2021/04/11 06:19:55;;;;;;;;;;;;;;;13.28;56.81;100676.75;4994229;28;101445;-80
2021/04/11 06:22:25;;;;;;;;;;;;;;;13.22;56.98;100679.72;4996053;28;99220;-80
2021/04/11 06:24:53;;;;;;;;;;;;;;;13.15;56.40;100679.13;4992612;28;97620;-80
2021/04/11 06:27:39;;;;;;;;;;;;;;;12.93;57.58;100665.16;4980870;28;98891;-79
2021/04/11 06:30:08;;;;;;;;;;;;;;;13.49;56.02;100658.03;4994652;28;99515;-78
2021/04/11 06:32:37;;;;;;;;;;;;;;;13.21;56.42;100656.75;4996670;28;101762;-79
2021/04/11 06:35:05;;;;;;;;;;;;;;;13.03;56.65;100651.38;4993789;28;97644;-78
2021/04/11 06:37:31;;;;;;;;;;;;;;;13.03;56.75;100656.69;4994926;28;96903;-80
2021/04/11 06:39:57;;;;;;;;;;;;;;;12.97;57.25;100662.28;4992113;28;98827;-79
2021/04/11 06:42:39;;;;;;;;;;;;;;;12.51;58.28;100666.16;4993181;28;99185;-78
2021/04/11 06:45:07;;;;;;;;;;;;;;;12.50;58.26;100656.47;4993205;28;98591;-79
2021/04/11 06:47:51;;;;;;;;;;;;;;;12.91;57.38;100649.31;4991481;28;96872;-80
2021/04/11 06:50:25;;;;;;;;;;;;;;;13.25;56.22;100647.75;4992340;28;99149;-79
2021/04/11 06:52:58;;;;;;;;;;;;;;;13.31;56.04;100650.09;4993148;28;99077;-78
2021/04/11 06:55:34;;;;;;;;;;;;;;;13.59;55.47;100646.97;4994420;28;97200;-80
2021/04/11 06:58:06;;;;;;;;;;;;;;;14.01;54.02;100651.91;4994752;28;97537;-81
2021/04/11 07:00:40;;;;;;;;;;;;;;;13.58;55.16;100651.41;4992509;28;98981;-79
2021/04/11 07:03:39;;;;;;;;;;;;;;;13.19;56.07;100648.03;4993291;28;98545;-80
2021/04/11 07:06:24;;;;;;;;;;;;;;;13.60;54.94;100643.34;4995181;28;97097;-81
2021/04/11 07:08:58;;;;;;;;;;;;;;;13.78;54.39;100632.69;4999943;28;97113;-80
2021/04/11 07:11:40;;;;;;;;;;;;;;;13.77;54.67;100630.97;4991255;28;99007;-80
2021/04/11 07:14:26;;;;;;;;;;;;;;;13.19;56.52;100635.63;4995814;28;98287;-81
2021/04/11 07:16:54;;;;;;;;;;;;;;;13.55;55.73;100630.31;4991877;28;96845;-79
2021/04/11 07:19:30;;;;;;;;;;;;;;;13.59;55.16;100633.69;4996424;28;96889;-81
2021/04/11 07:22:16;;;;;;;;;;;;;;;13.80;55.23;100643.22;4982257;28;98888;-79
2021/04/11 07:24:47;;;;;;;;;;;;;;;13.40;56.38;100646.97;4983672;28;97493;-80
2021/04/11 07:27:31;;;;;;;;;;;;;;;13.65;55.61;100647.53;4990518;28;96873;-80
2021/04/11 07:30:15;;;;;;;;;;;;;;;14.06;54.46;100641.88;4993584;28;97004;-79
2021/04/11 07:32:48;;;;;;;;;;;;;;;14.94;52.30;100645.19;4984793;28;98954;-80
2021/04/11 07:35:17;;;;;;;;;;;;;;;15.50;51.12;100637.53;4993485;28;98993;-80
2021/04/11 07:37:52;;;;;;;;;;;;;;;15.51;50.76;100638.38;4995449;28;96879;-79
2021/04/11 07:40:21;;;;;;;;;;;;;;;15.25;51.44;100636.34;4997701;28;96872;-79
2021/04/11 07:43:02;;;;;;;;;;;;;;;15.24;51.28;100632.81;4995656;28;101080;-78
2021/04/11 07:45:30;;;;;;;;;;;;;;;15.32;50.75;100632.38;5002523;28;98796;-79
2021/04/11 07:48:11;;;;;;;;;;;;;;;15.20;50.96;100644.59;5002059;28;97313;-79
2021/04/11 07:50:51;;;;;;;;;;;;;;;15.02;51.67;100633.19;4994132;28;97238;-81
2021/04/11 07:53:30;;;;;;;;;;;;;;;15.31;50.81;100642.19;4996140;28;99165;-80
2021/04/11 07:56:05;;;;;;;;;;;;;;;15.72;50.13;100641.66;4990317;28;100250;-79
2021/04/11 07:58:45;;;;;;;;;;;;;;;15.61;50.49;100641.41;4994843;28;98741;-81
2021/04/11 08:01:38;;;;;;;;;;;;;;;15.46;51.18;100646.66;4975457;28;97026;-79
2021/04/11 08:04:22;;;;;;;;;;;;;;;15.67;50.73;100643.72;4968869;28;100661;-79
2021/04/11 08:06:56;;;;;;;;;;;;;;;15.65;49.56;100629.63;4984299;28;97832;-80
2021/04/11 08:09:30;;;;;;;;;;;;;;;15.83;49.57;100639.19;4992920;28;96768;-79
2021/04/11 08:12:16;;;;;;;;;;;;;;;15.59;50.41;100630.84;4993504;28;97249;-79
2021/04/11 08:14:51;;;;;;;;;;;;;;;15.79;49.86;100638.53;4995900;28;100603;-80
2021/04/11 08:17:26;;;;;;;;;;;;;;;16.01;48.69;100627.47;4995462;28;99373;-78
2021/04/11 08:20:13;;;;;;;;;;;;;;;15.99;49.02;100626.69;5004727;28;98354;-80
2021/04/11 08:22:56;;;;;;;;;;;;;;;16.34;48.36;100625.41;5010432;28;96609;-81
2021/04/11 08:25:28;;;;;;;;;;;;;;;16.75;47.50;100630.03;5006202;28;97834;-80
2021/04/11 08:28:12;;;;;;;;;;;;;;;16.21;47.77;100624.44;4993853;28;101294;-80
2021/04/11 08:30:47;;;;;;;;;;;;;;;16.35;47.93;100621.78;4996768;28;96897;-81
2021/04/11 08:33:19;;;;;;;;;;;;;;;16.26;47.88;100625.03;4999944;28;96785;-80
2021/04/11 08:35:59;;;;;;;;;;;;;;;16.35;47.06;100624.47;4995237;28;98928;-79
2021/04/11 08:38:36;;;;;;;;;;;;;;;16.28;47.14;100625.78;5002799;28;101234;-81
2021/04/11 08:41:36;;;;;;;;;;;;;;;16.52;46.26;100617.25;4998103;28;98425;-80
2021/04/11 08:44:08;;;;;;;;;;;;;;;16.74;45.65;100620.31;4954635;28;98311;-80
2021/04/11 08:46:45;;;;;;;;;;;;;;;16.87;45.31;100618.56;4952185;28;98973;-81
2021/04/11 08:49:17;;;;;;;;;;;;;;;16.79;45.43;100612.03;4980259;28;98033;-79
2021/04/11 08:51:48;;;;;;;;;;;;;;;16.46;46.12;100610.50;4995654;28;96915;-80
2021/04/11 08:54:23;;;;;;;;;;;;;;;17.02;45.38;100612.25;4995322;28;97018;-80
2021/04/11 08:56:56;;;;;;;;;;;;;;;17.12;44.32;100597.38;4991372;28;118471;-81
2021/04/11 08:59:29;;;;;;;;;;;;;;;16.79;44.89;100599.53;5003328;28;98880;-79
2021/04/11 09:02:05;;;;;;;;;;;;;;;16.76;45.25;100591.72;4990769;28;98637;-79
2021/04/11 09:04:36;;;;;;;;;;;;;;;16.96;44.79;100598.47;4991184;28;97752;-79
2021/04/11 09:07:17;;;;;;;;;;;;;;;16.99;45.15;100596.47;4994147;28;99038;-79
2021/04/11 09:09:51;;;;;;;;;;;;;;;17.22;44.98;100586.94;4993737;28;98876;-79
2021/04/11 09:12:22;;;;;;;;;;;;;;;17.11;44.29;100585.00;4994710;28;97120;-79
2021/04/11 09:14:54;;;;;;;;;;;;;;;17.65;43.85;100587.69;4987545;28;97227;-79
2021/04/11 09:17:50;;;;;;;;;;;;;;;18.02;43.35;100585.16;4984441;28;97737;-80
2021/04/11 09:20:20;;;;;;;;;;;;;;;17.51;43.65;100583.22;4951307;28;99106;-78
2021/04/11 09:23:06;;;;;;;;;;;;;;;16.92;44.68;100579.13;4977402;28;97366;-79
2021/04/11 09:25:34;;;;;;;;;;;;;;;16.78;45.42;100579.16;4996414;28;98964;-78
2021/04/11 09:28:11;;;;;;;;;;;;;;;17.35;44.49;100581.66;5005842;28;97638;-79
2021/04/11 09:30:58;;;;;;;;;;;;;;;17.83;43.35;100573.06;4993944;28;98604;-79
2021/04/11 09:33:34;;;;;;;;;;;;;;;17.82;43.21;100582.03;4997201;28;96906;-80
2021/04/11 09:36:05;;;;;;;;;;;;;;;18.12;43.44;100584.41;5004475;28;96822;-80
2021/04/11 09:38:37;;;;;;;;;;;;;;;18.39;42.31;100584.31;5000357;28;99082;-79
2021/04/11 09:41:16;;;;;;;;;;;;;;;18.33;42.18;100590.09;4999516;28;98101;-78
2021/04/11 09:43:54;;;;;;;;;;;;;;;18.02;42.80;100599.41;4996484;28;97579;-79
2021/04/11 09:46:30;;;;;;;;;;;;;;;18.18;42.60;100599.19;4994491;28;97380;-80
2021/04/11 09:49:25;;;;;;;;;;;;;;;18.31;42.45;100597.38;4995631;28;98729;-82
2021/04/11 09:52:08;;;;;;;;;;;;;;;17.72;43.82;100596.97;5000208;28;99187;-81
2021/04/11 09:54:41;;;;;;;;;;;;;;;18.27;42.69;100587.84;4991017;28;97283;-81
2021/04/11 09:57:19;;;;;;;;;;;;;;;18.67;42.33;100583.25;4994171;28;97213;-79
2021/04/11 09:59:54;;;;;;;;;;;;;;;18.69;41.55;100584.84;4993608;28;99578;-80
2021/04/11 10:02:31;;;;;;;;;;;;;;;18.54;42.12;100585.06;4991298;28;98874;-81
2021/04/11 10:05:06;;;;;;;;;;;;;;;18.49;42.67;100579.19;4990966;28;97543;-80
2021/04/11 10:07:42;;;;;;;;;;;;;;;18.60;42.33;100588.19;4999985;28;98028;-81
2021/04/11 10:10:15;;;;;;;;;;;;;;;18.84;41.66;100582.06;4998139;28;97933;-80
2021/04/11 10:12:49;;;;;;;;;;;;;;;19.09;41.06;100584.66;5001341;28;99302;-80
2021/04/11 10:15:19;;;;;;;;;;;;;;;19.03;40.13;100585.09;4997456;28;97168;-79
2021/04/11 10:17:53;;;;;;;;;;;;;;;19.53;39.68;100580.50;5000859;28;97381;-79
2021/04/11 10:20:22;;;;;;;;;;;;;;;19.78;39.11;100572.31;4984054;28;99216;-80
2021/04/11 10:22:56;;;;;;;;;;;;;;;19.74;39.31;100565.50;5002747;28;100759;-79
2021/04/11 10:25:27;;;;;;;;;;;;;;;19.81;37.84;100564.06;4988027;28;99230;-79
2021/04/11 10:28:04;;;;;;;;;;;;;;;19.94;37.94;100572.88;4992864;28;97215;-80
2021/04/11 10:30:31;;;;;;;;;;;;;;;19.63;38.54;100574.34;4993319;28;97868;-80
2021/04/11 10:33:02;;;;;;;;;;;;;;;20.10;37.86;100564.47;4991087;28;98936;-78
2021/04/11 10:35:29;;;;;;;;;;;;;;;19.98;37.97;100555.56;4984556;28;97863;-79
2021/04/11 10:37:56;;;;;;;;;;;;;;;19.80;38.42;100555.16;4994701;28;96936;-79
2021/04/11 10:40:35;;;;;;;;;;;;;;;19.37;38.44;100560.19;4989280;28;97615;-80
2021/04/11 10:43:09;;;;;;;;;;;;;;;19.60;38.80;100557.66;4990616;28;99889;-78
2021/04/11 10:45:38;;;;;;;;;;;;;;;19.98;38.28;100554.69;4994347;28;97250;-78
2021/04/11 10:48:19;;;;;;;;;;;;;;;19.93;37.92;100552.38;4991982;28;98894;-78
2021/04/11 10:50:51;;;;;;;;;;;;;;;19.91;37.92;100546.28;4989271;28;99605;-80
2021/04/11 10:53:37;;;;;;;;;;;;;;;19.82;38.36;100549.69;4993863;28;97739;-81
2021/04/11 10:56:21;;;;;;;;;;;;;;;19.96;37.79;100546.75;4994383;28;99133;-79
2021/04/11 10:59:06;;;;;;;;;;;;;;;20.54;37.43;100547.59;4987777;28;97190;-78
2021/04/11 11:01:39;;;;;;;;;;;;;;;20.28;38.00;100545.09;4991668;28;100333;-77
2021/04/11 11:04:32;;;;;;;;;;;;;;;20.28;37.23;100544.28;4991503;28;99192;-79
2021/04/11 11:07:12;;;;;;;;;;;;;;;20.27;38.02;100540.72;4952583;28;96990;-76
2021/04/11 11:09:45;;;;;;;;;;;;;;;20.34;37.65;100541.13;4989774;28;97350;-78
2021/04/11 11:12:29;;;;;;;;;;;;;;;20.36;37.47;100536.47;4988200;28;101416;-78
2021/04/11 11:15:12;;;;;;;;;;;;;;;20.32;37.82;100547.56;4985577;28;99223;-79
2021/04/11 11:17:48;;;;;;;;;;;;;;;20.67;36.73;100542.97;4995814;28;96973;-79
2021/04/11 11:20:20;;;;;;;;;;;;;;;20.82;36.42;100541.69;4997490;28;96976;-78
2021/04/11 11:23:04;;;;;;;;;;;;;;;20.91;36.32;100550.84;4984697;28;99425;-77
2021/04/11 11:25:39;;;;;;;;;;;;;;;21.42;36.41;100545.72;4986791;28;99014;-78
2021/04/11 11:28:09;;;;;;;;;;;;;;;21.57;35.75;100541.75;4982041;28;97375;-77
2021/04/11 11:30:47;;;;;;;;;;;;;;;21.67;36.01;100545.34;4990637;28;97520;-76
2021/04/11 11:33:21;;;;;;;;;;;;;;;21.70;35.49;100545.09;4992376;28;98871;-78
2021/04/11 11:35:51;;;;;;;;;;;;;;;21.16;36.42;100536.28;4990692;28;99348;-77
2021/04/11 11:38:20;;;;;;;;;;;;;;;21.22;36.25;100544.69;4992480;28;98413;-77
2021/04/11 11:40:51;;;;;;;;;;;;;;;21.47;36.09;100538.97;4997739;28;97241;-78
2021/04/11 11:43:23;;;;;;;;;;;;;;;21.46;35.89;100534.56;4987341;28;98324;-78
2021/04/11 11:46:01;;;;;;;;;;;;;;;21.45;36.57;100529.34;4998956;28;99534;-78
2021/04/11 11:48:33;;;;;;;;;;;;;;;20.91;37.13;100532.91;4992232;28;97333;-78
2021/04/11 11:51:01;;;;;;;;;;;;;;;20.92;37.16;100525.69;4992758;28;96829;-78
2021/04/11 11:53:30;;;;;;;;;;;;;;;20.99;36.39;100524.22;4989263;28;99147;-79
2021/04/11 11:56:02;;;;;;;;;;;;;;;20.99;36.80;100517.00;4992788;28;99452;-79
2021/04/11 11:58:30;;;;;;;;;;;;;;;21.37;35.12;100515.69;4989255;28;98987;-78
2021/04/11 12:00:58;;;;;;;;;;;;;;;21.32;34.78;100520.59;4994872;28;97110;-80
2021/04/11 12:03:25;;;;;;;;;;;;;;;21.07;34.41;100519.91;4991851;28;99101;-80
2021/04/11 12:05:59;;;;;;;;;;;;;;;21.40;34.42;100516.25;4987616;28;98026;-80
2021/04/11 12:08:34;;;;;;;;;;;;;;;21.27;34.00;100512.91;4989552;28;97165;-80
2021/04/11 12:11:01;;;;;;;;;;;;;;;21.22;33.76;100512.44;4991537;28;97075;-79
2021/04/11 12:13:31;;;;;;;;;;;;;;;21.73;33.22;100507.19;4990096;28;98238;-77
2021/04/11 12:16:05;;;;;;;;;;;;;;;21.72;33.82;100502.81;4984234;28;99148;-79
2021/04/11 12:18:34;;;;;;;;;;;;;;;21.47;33.43;100506.72;4990120;28;97483;-78
2021/04/11 12:21:04;;;;;;;;;;;;;;;21.96;33.89;100499.88;4993206;28;97023;-79
2021/04/11 12:23:33;;;;;;;;;;;;;;;22.12;32.98;100504.78;4991230;28;99510;-76
2021/04/11 12:26:06;;;;;;;;;;;;;;;22.14;32.90;100494.72;4994187;28;99509;-79
2021/04/11 12:28:32;;;;;;;;;;;;;;;22.29;32.94;100498.75;4989580;28;97405;-76
2021/04/11 12:30:58;;;;;;;;;;;;;;;22.64;32.59;100493.75;4991135;28;97145;-80
2021/04/11 12:33:32;;;;;;;;;;;;;;;22.45;32.24;100501.78;4990649;28;98915;-78
2021/04/11 12:36:02;;;;;;;;;;;;;;;22.74;31.28;100506.44;4987775;28;99474;-78
2021/04/11 12:38:34;;;;;;;;;;;;;;;22.56;31.52;100507.06;4991298;28;98627;-78
2021/04/11 12:41:03;;;;;;;;;;;;;;;22.95;31.24;100497.28;4990752;28;97383;-77
2021/04/11 12:43:35;;;;;;;;;;;;;;;22.80;31.55;100497.81;4993488;28;99120;-78
2021/04/11 12:46:03;;;;;;;;;;;;;;;23.07;30.78;100486.38;4996943;28;98161;-78
2021/04/11 12:48:31;;;;;;;;;;;;;;;23.00;30.76;100495.00;4992689;28;99000;-79
2021/04/11 12:51:01;;;;;;;;;;;;;;;23.48;30.47;100483.44;4992697;28;97327;-77
2021/04/11 12:53:31;;;;;;;;;;;;;;;22.94;31.47;100489.31;4990219;28;99838;-79
2021/04/11 12:56:01;;;;;;;;;;;;;;;22.93;30.76;100487.63;4991797;28;98795;-79
2021/04/11 12:58:29;;;;;;;;;;;;;;;23.43;30.75;100480.28;4990600;28;99320;-77